Albury
Weather
Information

and Archive.
Albury Local Internet Skycam This service provided and funded by Albury Local Internet

Help keep our weatherstation running:

Lavington Weatherstation live data - Conditions of Use

Last updated on 29-May-2015 at 21:56:05
Temperature
  Currently  9.6 Degrees C
  Apparent Temperature ("Wind Chill") is 9.5 degrees C
  Today has ranged from  9.4 at 07:17 to 14.4 at 14:43
  Yesterday ranged from  8.9 at 04:07 to 17.3 at 15:01
Wind
  Now:    0.0kmh, gusting to   0.0kmh from 264 degrees ( W )
  Hour:   0.0kmh, gusting to   4.3kmh
Rainfall
  17.6mm Midnight to Midnight (ie, yesterday)
   0.4mm Since Midnight (ie, so far today)
  16.4mm 9am yesterday to 9am today
  49.2mm Total this month
Misc items
  Relative humidity is 100%
  Dewpoint is 9.6 deg C
  Estimated Cloudbase is 0 feet
  Barometric Pressure is 1025.0 mbar
  Solar Insolation: 9 W/m^2
Top Solar flares in the last 24 hours <--- NEW

Last 24 hours Temperature Graph (click graph for history)
temperature

Last 24 hours Dynamic Wind display (click image for 4-hour image):
Wind Rose

Current Yarrawonga Weather Radar and Infrared Satellite Images from the BOM.

Hourly summaries in the tables below are cumulative and peak values
for the preceding hour, and instantaneous values at the hour.
So far today, 29-May-2015
Time   Barom.  Wind + Gust    Direction   RH   Rain    Temp.  Minimum    Maximum
01:00  1020.0   7.8  18.7kmh  331 (NNW)   71%  0.0mm   12.3  12.1@00:36 12.9@00:06
02:00  1020.0   9.1  19.4kmh  270 ( W )   70%  0.0mm   12.6  12.3@01:00 12.8@01:17
03:00  1020.0   9.1  16.2kmh  283 (WNW)   71%  0.0mm   11.9  11.9@02:46 12.7@02:01
04:00  1020.0   5.3  14.0kmh  222 ( SW)   70%  0.0mm   11.3  11.2@03:57 11.9@03:00
05:00  1021.0   4.1  12.6kmh  293 (WNW)   71%  0.0mm   10.8  10.7@04:46 11.5@04:04
06:00  1021.0   3.7  11.2kmh  327 (NNW)   71%  0.4mm   10.3  10.2@05:55 10.9@05:05
07:00  1022.0   6.9  13.3kmh  259 ( W )   72%  0.0mm    9.7   9.7@06:59 10.3@06:00
08:00  1023.0   6.6  10.1kmh  300 (WNW)   74%  0.0mm    9.6   9.4@07:17  9.7@07:00
09:00  1023.0   5.1   7.9kmh  341 (NNW)   61%  0.0mm   10.7   9.6@08:00 10.8@08:51
10:00  1023.0   5.8  10.8kmh  335 (NNW)   91%  0.0mm   11.7  10.7@09:00 12.3@09:50
11:00  1024.0   7.1  14.8kmh  296 (WNW)   97%  0.0mm   12.7  11.7@10:00 13.6@10:55
12:00  1023.0  10.9  19.4kmh  222 ( SW)   99%  0.0mm   12.2  11.6@11:40 12.8@11:07
13:00  1023.0  10.9  20.2kmh  308 ( NW)  100%  0.0mm   14.1  12.2@12:00 13.8@12:37
14:00  1023.0  10.0  21.6kmh  318 ( NW)   89%  0.0mm   13.6  12.4@13:24 14.3@13:32
15:00  1023.0  10.0  17.6kmh  327 (NNW)   69%  0.0mm   13.6  13.2@14:02 14.4@14:43
16:00  1023.0   8.6  14.0kmh  255 (WSW)   87%  0.0mm   12.2  11.6@15:45 13.6@15:00
17:00  1023.0   4.4  10.1kmh  304 ( NW)  100%  0.0mm   10.8  11.0@16:15 12.2@16:00
18:00  1024.0   2.2   9.4kmh  316 ( NW)  100%  0.0mm   10.4  10.3@17:44 10.9@17:02
19:00  1024.0   1.9  12.6kmh  282 (WNW)   94%  0.0mm   10.5  10.2@18:28 10.6@18:57
20:00  1025.0   1.3  11.9kmh  304 ( NW)  100%  0.0mm    9.9   9.8@19:28 10.5@19:00
21:00  1025.0   0.7   7.2kmh  280 ( W )   98%  0.0mm    9.7   9.5@20:12 10.0@20:54
21:56  1025.0   0.0   4.3kmh  294 (WNW)  100%  0.0mm    9.6   9.5@21:52 10.0@21:17


Summary for yesterday, 28-May-2015
Time   Barom.  Wind + Gust    Direction   RH   Rain    Temp.  Minimum    Maximum
01:00  1023.0   0.6   9.4kmh   17 (NNE)   60%  0.0mm   11.0   9.9@00:22 10.9@00:33
02:00  1023.0   6.8  17.6kmh   44 ( NE)   58%  0.0mm   10.4  10.1@01:16 11.1@01:01
03:00  1022.0   6.9  16.2kmh   41 ( NE)   58%  0.0mm   10.5   9.8@02:25 10.8@02:51
04:00  1022.0   4.9  17.6kmh   38 ( NE)   63%  0.0mm    9.0   9.4@03:35 10.8@03:24
05:00  1022.0   7.6  17.6kmh   42 ( NE)   57%  0.0mm   10.6   8.9@04:07 10.9@04:28
06:00  1022.0   5.7  12.6kmh   31 (NNE)   67%  0.6mm   10.0   8.9@05:50 10.7@05:02
07:00  1022.0  10.2  16.9kmh   19 (NNE)   58%  0.0mm   11.2   9.3@06:04 11.4@06:58
08:00  1023.0  12.2  26.3kmh   31 (NNE)   57%  0.0mm   11.6  11.2@07:00 11.8@07:38
09:00  1023.0   5.5  13.3kmh   46 ( NE)   69%  1.0mm   10.4  10.1@08:31 11.6@08:00
10:00  1023.0   6.3  19.4kmh   37 ( NE)   69%  0.8mm   11.7  10.3@09:02 11.9@09:57
11:00  1023.0   9.6  15.5kmh   41 ( NE)   64%  0.0mm   12.3  11.5@10:08 12.5@10:59
12:06  1022.0   9.4  16.9kmh   27 (NNE)   56%  0.0mm   14.4  12.3@11:00 14.6@11:56
13:00  1021.0  11.1  17.6kmh   48 ( NE)   58%  0.0mm   14.5  14.3@12:07 15.2@12:31
14:00  1020.0  13.5  23.0kmh   33 (NNE)   91%  0.0mm   15.9  14.4@13:05 16.9@13:49
15:00  1019.0  14.9  28.4kmh   35 ( NE)   97%  0.0mm   17.2  15.7@14:17 17.2@14:59
16:00  1019.0  15.7  28.4kmh   14 (NNE)   98%  0.0mm   16.0  16.0@15:55 17.3@15:01
17:00  1019.0  15.6  25.6kmh    5 ( N )   95%  0.0mm   15.5  15.5@16:52 16.0@16:00
18:00  1019.0   8.9  20.2kmh  321 ( NW)   66%  2.2mm   13.7  13.7@17:57 15.5@17:00
19:00  1019.0   3.7  12.6kmh  279 ( W )   69%  0.2mm   13.2  13.0@18:43 13.8@18:05
20:00  1020.0   7.2  12.6kmh  331 (NNW)   69%  0.2mm   13.0  12.7@19:52 13.6@19:21
21:00  1020.0   5.0  18.7kmh  302 (WNW)   71%  7.4mm   12.4  12.4@20:55 13.5@20:09
22:00  1020.0   0.6   7.9kmh  286 (WNW)   72%  5.2mm   12.3  12.3@21:40 12.7@21:16
23:00  1020.0   5.8  14.0kmh  341 (NNW)   72%  0.0mm   12.8  12.3@22:00 12.9@22:55
00:00  1020.0   9.5  17.6kmh  326 ( NW)   71%  0.0mm   12.8  12.6@23:18 12.9@23:33